createdAt,value
2018-07-04T00:05:08.866Z,99.90
2018-07-04T00:10:22.128Z,99.90
2018-07-04T00:13:01.812Z,99.90
2018-07-04T00:15:42.132Z,99.90
2018-07-04T00:18:21.700Z,99.90
2018-07-04T00:21:01.516Z,99.90
2018-07-04T00:23:41.238Z,99.90
2018-07-04T00:34:01.953Z,99.90
2018-07-04T00:36:41.688Z,99.90
2018-07-04T00:39:21.339Z,99.90
2018-07-04T00:42:00.778Z,99.90
2018-07-04T00:44:40.540Z,99.90
2018-07-04T00:47:20.299Z,99.90
2018-07-04T00:50:00.065Z,99.90
2018-07-04T00:52:39.683Z,99.90
2018-07-04T00:55:19.348Z,99.90
2018-07-04T00:57:58.994Z,99.90
2018-07-04T01:00:38.744Z,99.90
2018-07-04T01:03:18.721Z,99.90
2018-07-04T01:05:58.463Z,99.90
2018-07-04T01:08:38.203Z,99.90
2018-07-04T01:11:17.956Z,99.90
2018-07-04T01:13:57.659Z,99.90
2018-07-04T01:16:37.187Z,99.90
2018-07-04T01:26:57.828Z,99.90
2018-07-04T01:29:37.488Z,99.90
2018-07-04T01:34:50.840Z,99.90
2018-07-04T01:37:30.619Z,99.90
2018-07-04T01:40:10.426Z,99.90
2018-07-04T01:45:23.666Z,99.90
2018-07-04T01:48:03.201Z,99.90
2018-07-04T01:50:42.857Z,99.90
2018-07-04T01:53:22.475Z,99.90
2018-07-04T01:56:02.075Z,99.90
2018-07-04T01:58:41.820Z,99.90
2018-07-04T02:01:21.412Z,99.90
2018-07-04T02:09:09.440Z,99.90
2018-07-04T02:11:48.840Z,99.90
2018-07-04T02:14:28.619Z,99.90
2018-07-04T02:17:08.164Z,99.90
2018-07-04T02:19:47.762Z,99.90
2018-07-04T02:22:27.480Z,99.90
2018-07-04T02:25:07.273Z,99.90
2018-07-04T02:27:46.767Z,99.90
2018-07-04T02:30:26.439Z,99.90
2018-07-04T02:33:06.055Z,99.90
2018-07-04T02:35:45.704Z,99.90
2018-07-04T02:40:58.764Z,99.90
2018-07-04T02:43:38.263Z,99.90
2018-07-04T02:46:23.460Z,99.90
2018-07-04T02:51:36.802Z,99.90
2018-07-04T02:54:16.509Z,99.90
2018-07-04T02:56:56.114Z,99.90
2018-07-04T02:59:35.745Z,99.90
2018-07-04T03:02:15.416Z,99.90
2018-07-04T03:04:55.028Z,99.90
2018-07-04T03:07:34.681Z,99.90
2018-07-04T03:10:14.445Z,99.90
2018-07-04T03:12:54.153Z,99.90
2018-07-04T03:15:33.797Z,99.90
2018-07-04T03:18:13.404Z,99.90
2018-07-04T03:20:53.109Z,99.90
2018-07-04T03:23:32.688Z,99.90
2018-07-04T03:26:12.362Z,99.90
2018-07-04T03:28:51.954Z,99.90
2018-07-04T03:31:31.578Z,99.90
2018-07-04T03:34:11.181Z,99.90
2018-07-04T03:39:24.537Z,99.90
2018-07-04T03:42:04.230Z,99.90
2018-07-04T03:44:43.912Z,99.90
2018-07-04T03:49:57.139Z,99.90
2018-07-04T03:52:36.836Z,99.90
2018-07-04T03:55:16.375Z,99.90
2018-07-04T03:57:56.037Z,99.90
2018-07-04T04:00:35.664Z,99.90
2018-07-04T04:03:15.364Z,99.90
2018-07-04T04:08:28.423Z,99.90
2018-07-04T04:11:08.144Z,99.90
2018-07-04T04:13:47.904Z,99.90
2018-07-04T04:16:27.607Z,99.90
2018-07-04T04:19:07.592Z,99.90
2018-07-04T04:21:47.146Z,99.90
2018-07-04T04:24:26.931Z,99.90
2018-07-04T04:27:06.600Z,99.90
2018-07-04T04:29:46.222Z,99.90
2018-07-04T04:32:25.852Z,99.90
2018-07-04T04:35:05.576Z,99.90
2018-07-04T04:37:45.166Z,99.90
2018-07-04T04:40:24.847Z,99.90
2018-07-04T04:43:04.449Z,99.90
2018-07-04T04:45:44.232Z,99.90
2018-07-04T04:48:23.616Z,99.90
2018-07-04T04:51:03.388Z,99.90
2018-07-04T04:53:43.092Z,99.90
2018-07-04T04:56:22.676Z,99.90
2018-07-04T05:01:35.509Z,99.90
2018-07-04T05:06:48.946Z,99.90
2018-07-04T05:09:28.772Z,99.90
2018-07-04T05:12:08.535Z,99.90
2018-07-04T05:14:48.320Z,99.90
2018-07-04T05:17:28.035Z,99.90
2018-07-04T05:20:07.823Z,99.90
2018-07-04T05:22:47.532Z,99.90
2018-07-04T05:25:27.164Z,99.90
2018-07-04T05:28:06.755Z,99.90
2018-07-04T05:30:46.575Z,99.90
2018-07-04T05:33:26.291Z,99.90
2018-07-04T05:36:05.923Z,99.90
2018-07-04T05:38:45.592Z,99.90
2018-07-04T05:46:32.712Z,99.90
2018-07-04T05:49:12.388Z,99.90
2018-07-04T05:51:51.903Z,99.90
2018-07-04T05:54:31.814Z,99.90
2018-07-04T05:57:11.624Z,99.90
2018-07-04T05:59:51.212Z,99.90
2018-07-04T06:02:30.897Z,99.90
2018-07-04T06:10:17.779Z,99.90
2018-07-04T06:12:57.476Z,99.90
2018-07-04T06:15:37.015Z,99.90
2018-07-04T06:18:16.787Z,99.90
2018-07-04T06:20:56.449Z,99.90
2018-07-04T06:23:36.259Z,99.90
2018-07-04T06:28:49.591Z,99.90
2018-07-04T06:34:02.852Z,98.50
2018-07-04T06:41:31.752Z,95.40
2018-07-04T06:46:26.387Z,95.00
2018-07-04T07:06:24.476Z,93.40
2018-07-04T07:09:04.732Z,92.70
2018-07-04T07:11:44.723Z,92.10
2018-07-04T07:14:24.443Z,92.50
2018-07-04T07:19:37.536Z,91.90
2018-07-04T07:22:17.053Z,92.10
2018-07-04T07:24:56.700Z,92.10
2018-07-04T07:27:36.257Z,92.70
2018-07-04T07:30:15.766Z,92.40
2018-07-04T07:32:55.451Z,92.20
2018-07-04T07:38:09.732Z,93.90
2018-07-04T07:43:22.924Z,94.70
2018-07-04T07:46:02.586Z,95.00
2018-07-04T07:56:23.260Z,96.80
2018-07-04T08:01:36.743Z,97.20
2018-07-04T08:04:16.529Z,98.00
2018-07-04T08:06:56.303Z,98.20
2018-07-04T08:09:35.936Z,99.30
2018-07-04T08:14:49.276Z,98.70
2018-07-04T08:17:28.929Z,99.20
2018-07-04T08:20:08.804Z,98.30
2018-07-04T08:22:48.511Z,98.70
2018-07-04T08:25:28.160Z,99.10
2018-07-04T08:28:07.871Z,99.00
2018-07-04T08:30:47.423Z,98.80
2018-07-04T08:33:27.025Z,98.80
2018-07-04T08:36:06.662Z,97.60
2018-07-04T08:38:46.311Z,98.90
2018-07-04T08:41:25.992Z,97.50
2018-07-04T08:44:05.789Z,97.70
2018-07-04T08:46:46.016Z,96.70
2018-07-04T08:51:59.343Z,97.00
2018-07-04T08:54:39.092Z,96.90
2018-07-04T08:59:52.383Z,96.70
2018-07-04T09:02:32.076Z,96.90
2018-07-04T09:05:11.701Z,97.80
2018-07-04T09:07:51.348Z,97.00
2018-07-04T09:10:30.981Z,97.30
2018-07-04T09:13:10.608Z,97.80
2018-07-04T09:15:50.288Z,97.00
2018-07-04T09:18:30.018Z,96.20
2018-07-04T09:21:09.444Z,95.50
2018-07-04T09:23:49.120Z,95.40
2018-07-04T09:26:28.733Z,95.70
2018-07-04T09:29:08.512Z,96.00
2018-07-04T09:34:21.771Z,96.10
2018-07-04T09:37:01.388Z,96.50
2018-07-04T09:39:41.147Z,95.70
2018-07-04T09:47:28.298Z,95.70
2018-07-04T09:55:15.404Z,95.80
2018-07-04T09:57:54.980Z,95.60
2018-07-04T10:03:10.683Z,95.70
2018-07-04T10:08:23.676Z,95.60
2018-07-04T10:11:03.619Z,95.50
2018-07-04T10:13:43.407Z,95.20
2018-07-04T10:16:23.125Z,94.30
2018-07-04T10:19:02.671Z,94.40
2018-07-04T10:21:42.515Z,93.80
2018-07-04T10:24:22.284Z,94.50
2018-07-04T10:27:02.052Z,94.90
2018-07-04T10:29:41.640Z,94.10
2018-07-04T10:32:21.772Z,94.50
2018-07-04T10:35:01.502Z,94.90
2018-07-04T10:37:41.237Z,93.20
2018-07-04T10:40:20.960Z,94.50
2018-07-04T10:45:34.604Z,94.90
2018-07-04T10:48:14.148Z,94.10
2018-07-04T10:50:53.795Z,93.00
2018-07-04T10:53:33.463Z,93.70
2018-07-04T10:56:13.047Z,93.60
2018-07-04T10:58:52.691Z,93.20
2018-07-04T11:01:32.359Z,93.60
2018-07-04T11:04:12.096Z,92.40
2018-07-04T11:06:51.744Z,92.00
2018-07-04T11:09:31.351Z,91.40
2018-07-04T11:12:11.104Z,91.20
2018-07-04T11:14:50.592Z,91.30
2018-07-04T11:17:30.116Z,91.30
2018-07-04T11:22:43.508Z,92.90
2018-07-04T11:25:23.212Z,91.80
2018-07-04T11:30:36.423Z,91.90
2018-07-04T11:33:15.970Z,91.80
2018-07-04T11:35:55.632Z,92.50
2018-07-04T11:43:42.363Z,92.20
2018-07-04T11:46:09.574Z,92.60
2018-07-04T11:48:37.411Z,91.30
2018-07-04T11:51:04.616Z,91.20
2018-07-04T11:53:31.812Z,91.30
2018-07-04T11:55:59.024Z,90.50
2018-07-04T11:58:26.221Z,91.30
2018-07-04T12:00:53.413Z,90.20
2018-07-04T12:03:22.094Z,90.00
2018-07-04T12:06:01.993Z,90.70
2018-07-04T12:08:29.183Z,91.20
2018-07-04T12:10:56.893Z,88.80
2018-07-04T12:13:25.376Z,90.00
2018-07-04T12:18:20.276Z,90.30
2018-07-04T12:20:47.479Z,88.90
2018-07-04T12:23:15.107Z,89.50
2018-07-04T12:25:43.374Z,91.10
2018-07-04T12:30:38.075Z,90.80
2018-07-04T12:38:00.216Z,90.80
2018-07-04T12:40:27.408Z,89.10
2018-07-04T12:42:54.611Z,91.10
2018-07-04T12:45:21.808Z,88.90
2018-07-04T12:47:49.024Z,89.60
2018-07-04T12:50:26.234Z,90.30
2018-07-04T12:52:53.655Z,87.60
2018-07-04T12:55:35.903Z,89.60
2018-07-04T12:58:15.951Z,89.30
2018-07-04T13:00:55.680Z,88.90
2018-07-04T13:08:42.748Z,89.60
2018-07-04T13:11:22.501Z,89.20
2018-07-04T13:14:03.190Z,89.00
2018-07-04T13:16:42.737Z,89.30
2018-07-04T13:19:23.022Z,90.80
2018-07-04T13:22:02.698Z,90.10
2018-07-04T13:24:42.348Z,88.10
2018-07-04T13:27:22.313Z,87.90
2018-07-04T13:30:01.812Z,87.10
2018-07-04T13:32:41.436Z,89.20
2018-07-04T13:35:21.000Z,86.50
2018-07-04T13:38:00.680Z,86.20
2018-07-04T13:40:40.267Z,87.10
2018-07-04T13:43:20.244Z,88.50
2018-07-04T13:45:59.895Z,88.10
2018-07-04T13:48:40.532Z,85.80
2018-07-04T13:51:20.271Z,87.30
2018-07-04T13:53:59.962Z,84.10
2018-07-04T13:56:39.612Z,86.70
2018-07-04T13:59:19.304Z,85.50
2018-07-04T14:01:59.057Z,85.40
2018-07-04T14:17:27.046Z,85.70
2018-07-04T14:20:06.667Z,84.80
2018-07-04T14:22:46.231Z,86.40
2018-07-04T14:25:25.999Z,86.60
2018-07-04T14:28:05.687Z,85.50
2018-07-04T14:30:45.326Z,85.10
2018-07-04T14:33:24.952Z,85.90
2018-07-04T14:36:04.601Z,84.30
2018-07-04T14:38:44.280Z,85.00
2018-07-04T14:41:23.898Z,84.70
2018-07-04T14:49:10.741Z,84.60
2018-07-04T14:54:24.056Z,84.30
2018-07-04T14:57:03.585Z,85.50
2018-07-04T14:59:43.263Z,86.50
2018-07-04T15:04:56.404Z,84.50
2018-07-04T15:10:09.334Z,87.10
2018-07-04T15:15:22.675Z,84.90
2018-07-04T15:18:02.477Z,81.70
2018-07-04T15:20:42.078Z,82.50
2018-07-04T15:25:55.412Z,83.40
2018-07-04T15:28:35.051Z,85.00
2018-07-04T15:31:14.688Z,82.40
2018-07-04T15:33:54.459Z,84.70
2018-07-04T15:36:34.288Z,84.00
2018-07-04T15:41:47.540Z,81.00
2018-07-04T15:49:34.297Z,83.70
2018-07-04T15:57:21.319Z,84.60
2018-07-04T16:00:00.971Z,84.60
2018-07-04T16:05:14.844Z,83.10
2018-07-04T16:07:54.584Z,83.10
2018-07-04T16:10:34.212Z,83.10
2018-07-04T16:13:13.740Z,81.80
2018-07-04T16:15:53.341Z,81.40
2018-07-04T16:18:33.055Z,82.80
2018-07-04T16:21:12.767Z,81.20
2018-07-04T16:23:52.448Z,81.30
2018-07-04T16:26:32.115Z,83.50
2018-07-04T16:29:11.707Z,81.20
2018-07-04T16:31:51.347Z,81.60
2018-07-04T16:39:38.192Z,83.40
2018-07-04T16:44:51.374Z,83.30
2018-07-04T16:47:31.112Z,82.50
2018-07-04T16:50:10.835Z,82.70
2018-07-04T16:52:50.801Z,81.80
2018-07-04T16:55:30.649Z,83.10
2018-07-04T16:58:10.300Z,84.50
2018-07-04T17:00:49.911Z,83.00
2018-07-04T17:03:29.520Z,84.10
2018-07-04T17:06:09.512Z,83.60
2018-07-04T17:08:49.043Z,81.90
2018-07-04T17:14:02.568Z,83.80
2018-07-04T17:16:42.347Z,83.10
2018-07-04T17:19:21.951Z,84.30
2018-07-04T17:22:01.627Z,83.10
2018-07-04T17:24:41.219Z,83.00
2018-07-04T17:27:20.916Z,82.70
2018-07-04T17:30:00.588Z,82.50
2018-07-04T17:32:40.391Z,82.70
2018-07-04T17:37:53.567Z,83.30
2018-07-04T17:40:33.478Z,83.20
2018-07-04T17:45:46.736Z,84.30
2018-07-04T17:48:26.456Z,85.60
2018-07-04T17:51:06.479Z,83.70
2018-07-04T17:53:46.791Z,85.60
2018-07-04T17:56:26.519Z,85.70
2018-07-04T18:01:39.885Z,84.60
2018-07-04T18:04:19.705Z,85.70
2018-07-04T18:09:32.986Z,85.80
2018-07-04T18:12:12.835Z,86.30
2018-07-04T18:14:52.360Z,85.70
2018-07-04T18:17:31.887Z,87.60
2018-07-04T18:20:11.687Z,86.90
2018-07-04T18:22:51.506Z,86.40
2018-07-04T18:25:31.054Z,86.10
2018-07-04T18:28:10.754Z,88.30
2018-07-04T18:33:23.784Z,89.00
2018-07-04T18:36:03.412Z,88.90
2018-07-04T18:38:43.043Z,89.70
2018-07-04T18:41:22.616Z,90.00
2018-07-04T18:46:35.785Z,90.90
2018-07-04T18:49:15.433Z,91.70
2018-07-04T18:51:54.982Z,91.60
2018-07-04T18:54:34.747Z,92.10
2018-07-04T18:57:14.368Z,92.60
2018-07-04T18:59:54.304Z,92.80
2018-07-04T19:02:34.016Z,92.90
2018-07-04T19:10:21.000Z,93.90
2018-07-04T19:13:00.734Z,93.60
2018-07-04T19:15:40.408Z,93.20
2018-07-04T19:18:20.275Z,93.30
2018-07-04T19:20:59.863Z,92.50
2018-07-04T19:23:39.641Z,91.60
2018-07-04T19:26:20.154Z,92.60
2018-07-04T19:31:33.632Z,91.60
2018-07-04T19:34:13.424Z,91.90
2018-07-04T19:36:53.312Z,92.00
2018-07-04T19:39:33.229Z,92.50
2018-07-04T19:42:12.976Z,92.90
2018-07-04T19:44:52.599Z,92.90
2018-07-04T19:47:32.263Z,93.50
2018-07-04T19:50:11.955Z,94.50
2018-07-04T19:52:51.437Z,95.70
2018-07-04T19:55:31.141Z,95.60
2018-07-04T19:58:10.810Z,96.40
2018-07-04T20:00:50.407Z,97.10
2018-07-04T20:03:30.116Z,97.90
2018-07-04T20:08:43.668Z,98.90
2018-07-04T20:13:57.123Z,99.90
2018-07-04T20:16:36.928Z,99.90
2018-07-04T20:19:16.592Z,99.90
2018-07-04T20:21:56.253Z,99.90
2018-07-04T20:24:35.987Z,99.90
2018-07-04T20:27:16.017Z,99.90
2018-07-04T20:29:55.660Z,99.90
2018-07-04T20:32:35.578Z,99.90
2018-07-04T20:35:15.276Z,99.90
2018-07-04T20:37:54.791Z,99.90
2018-07-04T20:40:34.364Z,99.90
2018-07-04T20:43:14.119Z,99.90
2018-07-04T20:45:53.718Z,99.90
2018-07-04T20:48:33.484Z,99.90
2018-07-04T20:51:13.144Z,99.90
2018-07-04T20:53:52.818Z,99.90
2018-07-04T20:56:32.972Z,99.90
2018-07-04T20:59:12.644Z,99.90
2018-07-04T21:01:52.323Z,99.90
2018-07-04T21:07:05.570Z,99.90
2018-07-04T21:09:45.203Z,99.90
2018-07-04T21:14:58.667Z,99.90
2018-07-04T21:17:38.389Z,99.90
2018-07-04T21:20:18.029Z,99.90
2018-07-04T21:22:57.714Z,99.90
2018-07-04T21:25:37.291Z,99.90
2018-07-04T21:28:16.959Z,99.90
2018-07-04T21:30:56.668Z,99.90
2018-07-04T21:33:36.411Z,99.90
2018-07-04T21:36:15.933Z,99.90
2018-07-04T21:38:55.627Z,99.90
2018-07-04T21:44:10.056Z,99.90
2018-07-04T21:46:49.624Z,99.90
2018-07-04T21:49:29.364Z,99.90
2018-07-04T21:52:08.914Z,99.90
2018-07-04T21:54:48.564Z,99.90
2018-07-04T21:57:28.103Z,99.90
2018-07-04T22:00:07.860Z,99.90
2018-07-04T22:05:21.045Z,99.90
2018-07-04T22:08:00.847Z,99.90
2018-07-04T22:10:40.549Z,99.90
2018-07-04T22:13:20.207Z,99.90
2018-07-04T22:15:59.793Z,99.90
2018-07-04T22:18:39.420Z,99.90
2018-07-04T22:21:18.960Z,99.90
2018-07-04T22:23:58.703Z,99.90
2018-07-04T22:26:38.399Z,99.90
2018-07-04T22:29:17.895Z,99.90
2018-07-04T22:34:31.247Z,99.90
2018-07-04T22:37:10.828Z,99.90
2018-07-04T22:39:50.464Z,99.90
2018-07-04T22:42:30.036Z,99.90
2018-07-04T22:45:09.695Z,99.90
2018-07-04T22:50:23.534Z,99.90
2018-07-04T22:53:03.184Z,99.90
2018-07-04T22:55:42.776Z,99.90
2018-07-04T22:58:22.473Z,99.90
2018-07-04T23:03:35.810Z,99.90
2018-07-04T23:06:15.783Z,99.90
2018-07-04T23:08:55.341Z,99.90
2018-07-04T23:11:35.028Z,99.90
2018-07-04T23:14:14.736Z,99.90
2018-07-04T23:16:54.452Z,99.90
2018-07-04T23:19:35.087Z,99.90
2018-07-04T23:22:14.725Z,99.90
2018-07-04T23:24:54.375Z,99.90
2018-07-04T23:27:33.907Z,99.90
2018-07-04T23:30:13.496Z,99.90
2018-07-04T23:32:53.733Z,99.90
2018-07-04T23:35:33.280Z,99.90
2018-07-04T23:38:12.923Z,99.90
2018-07-04T23:40:52.583Z,99.90
2018-07-04T23:43:32.407Z,99.90
2018-07-04T23:48:45.716Z,99.90
2018-07-04T23:51:25.391Z,99.90
2018-07-04T23:54:05.028Z,99.90
2018-07-04T23:56:44.651Z,99.90
2018-07-04T23:59:24.316Z,99.90
